Time;durP1;ratioP1;P1;durP2;ratioP2;P2;SDS_P1;SDS_P2;PMS_P1;PMS_P2;Temp;Humidity;BMP_temperature;BMP_pressure;BME280_temperature;BME280_humidity;BME280_pressure;Samples;Min_cycle;Max_cycle;Signal;HPM_P1;HPM_P2
2021/01/19 00:00:32;;;;;;;37.08;11.57;;;-0.70;99.90;;;;;;5076920;28;20529;-61
2021/01/19 00:02:59;;;;;;;32.60;10.57;;;-0.70;99.90;;;;;;5073315;28;20040;-62
2021/01/19 00:05:25;;;;;;;34.45;11.43;;;-0.70;99.90;;;;;;5079392;28;20082;-61
2021/01/19 00:07:52;;;;;;;29.35;10.80;;;-0.60;99.90;;;;;;5075731;28;20046;-62
2021/01/19 00:10:18;;;;;;;31.30;10.82;;;-0.60;99.90;;;;;;5073795;28;20041;-63
2021/01/19 00:12:45;;;;;;;32.05;10.82;;;-0.60;99.90;;;;;;5086358;28;20054;-62
2021/01/19 00:15:12;;;;;;;35.03;11.13;;;-0.60;99.90;;;;;;5088886;28;20036;-62
2021/01/19 00:17:39;;;;;;;34.67;12.35;;;-0.60;99.90;;;;;;5080956;28;20044;-61
2021/01/19 00:20:06;;;;;;;32.08;12.18;;;-0.60;99.90;;;;;;5078011;28;20046;-62
2021/01/19 00:22:32;;;;;;;32.92;10.93;;;-0.60;99.90;;;;;;5081164;28;20052;-62
2021/01/19 00:25:00;;;;;;;39.78;13.07;;;-0.50;99.90;;;;;;5071354;28;20098;-62
2021/01/19 00:27:27;;;;;;;36.08;11.70;;;-0.60;99.90;;;;;;5061977;28;20040;-62
2021/01/19 00:29:53;;;;;;;37.63;12.50;;;-0.60;99.90;;;;;;5069380;28;20090;-63
2021/01/19 00:32:20;;;;;;;31.08;10.63;;;-0.60;99.90;;;;;;5078261;28;20505;-62
2021/01/19 00:34:47;;;;;;;34.38;12.07;;;-0.60;99.90;;;;;;5083731;28;20040;-62
2021/01/19 00:37:13;;;;;;;35.72;11.07;;;-0.50;99.90;;;;;;5076743;28;20045;-61
2021/01/19 00:39:40;;;;;;;41.28;13.32;;;-0.50;99.90;;;;;;5079078;28;20472;-62
2021/01/19 00:42:15;;;;;;;31.60;10.93;;;-0.60;99.90;;;;;;5080704;28;20063;-62
2021/01/19 00:44:48;;;;;;;30.67;11.25;;;-0.60;99.90;;;;;;5078764;28;20546;-62
2021/01/19 00:47:14;;;;;;;41.42;12.27;;;-0.60;99.90;;;;;;5079379;28;20475;-62
2021/01/19 00:49:42;;;;;;;35.17;13.00;;;-0.60;99.90;;;;;;5073982;28;20036;-62
2021/01/19 00:52:08;;;;;;;41.38;14.02;;;-0.60;99.90;;;;;;5076909;28;20048;-62
2021/01/19 00:54:35;;;;;;;36.15;12.38;;;-0.60;99.90;;;;;;5067838;28;20048;-63
2021/01/19 00:57:01;;;;;;;36.20;12.43;;;-0.50;99.90;;;;;;5084734;28;20054;-62
2021/01/19 00:59:28;;;;;;;34.53;13.95;;;-0.50;99.90;;;;;;5073966;28;20052;-63
2021/01/19 01:01:54;;;;;;;36.67;12.15;;;-0.50;99.90;;;;;;5070988;28;20056;-62
2021/01/19 01:04:21;;;;;;;36.75;12.48;;;-0.60;99.90;;;;;;5064390;28;20064;-62
2021/01/19 01:06:54;;;;;;;35.70;12.07;;;-0.60;99.90;;;;;;5072671;28;20047;-61
2021/01/19 01:09:20;;;;;;;;;;;-0.60;99.90;;;;;;5074704;28;20518;-61
2021/01/19 01:11:47;;;;;;;40.72;12.00;;;-0.60;99.90;;;;;;5076782;28;19944;-62
2021/01/19 01:14:14;;;;;;;38.72;13.38;;;-0.60;99.90;;;;;;5078946;28;20082;-61
2021/01/19 01:16:41;;;;;;;35.15;12.27;;;-0.60;99.90;;;;;;5079923;28;20052;-61
2021/01/19 01:19:09;;;;;;;35.25;13.20;;;-0.70;99.90;;;;;;5074218;28;20098;-61
2021/01/19 01:21:37;;;;;;;35.47;12.40;;;-0.70;99.90;;;;;;5075170;28;20506;-63
2021/01/19 01:24:07;;;;;;;35.95;12.52;;;-0.70;99.90;;;;;;5073312;28;20422;-61
2021/01/19 01:26:35;;;;;;;35.50;13.65;;;-0.80;99.90;;;;;;5074734;28;20036;-62
2021/01/19 01:29:03;;;;;;;43.83;14.55;;;-0.90;99.90;;;;;;5080519;28;20036;-62
2021/01/19 01:31:30;;;;;;;42.80;14.25;;;-0.80;99.90;;;;;;5070732;28;20471;-61
2021/01/19 01:33:56;;;;;;;44.10;14.00;;;-0.80;99.90;;;;;;5077755;28;20044;-61
2021/01/19 01:36:24;;;;;;;39.88;14.02;;;-0.90;99.90;;;;;;5073358;28;20055;-62
2021/01/19 01:38:50;;;;;;;42.88;14.38;;;-0.90;99.90;;;;;;5077492;28;20110;-61
2021/01/19 01:41:18;;;;;;;39.95;13.98;;;-0.90;99.90;;;;;;5083289;28;20049;-61
2021/01/19 01:43:45;;;;;;;45.97;15.38;;;-0.90;99.90;;;;;;5075522;28;20468;-63
2021/01/19 01:46:14;;;;;;;48.25;15.75;;;-0.90;99.90;;;;;;5068627;28;20838;-61
2021/01/19 01:48:42;;;;;;;49.22;14.77;;;-0.80;99.90;;;;;;5071950;28;20040;-62
2021/01/19 01:51:12;;;;;;;37.90;13.85;;;-0.80;99.90;;;;;;5072214;28;20040;-62
2021/01/19 01:53:41;;;;;;;43.00;15.00;;;-0.70;99.90;;;;;;5070271;28;20055;-62
2021/01/19 01:56:09;;;;;;;39.08;14.07;;;-0.70;99.90;;;;;;5070654;28;20040;-61
2021/01/19 01:58:37;;;;;;;43.88;14.25;;;-0.70;99.90;;;;;;5076961;28;20048;-61
2021/01/19 02:01:04;;;;;;;37.92;13.45;;;-0.70;99.90;;;;;;5057158;28;20503;-61
2021/01/19 02:03:32;;;;;;;42.75;12.88;;;-0.70;99.90;;;;;;5081201;28;20041;-62
2021/01/19 02:05:59;;;;;;;40.55;14.18;;;-0.70;99.90;;;;;;5081791;28;20536;-61
2021/01/19 02:09:02;;;;;;;42.72;12.43;;;-0.70;99.90;;;;;;5082811;28;20036;-61
2021/01/19 02:11:56;;;;;;;44.08;15.23;;;-0.90;99.90;;;;;;5071630;28;20040;-61
2021/01/19 02:14:39;;;;;;;41.60;13.55;;;-0.90;99.90;;;;;;5074890;28;20287;-62
2021/01/19 02:17:20;;;;;;;38.40;14.88;;;-1.00;99.90;;;;;;5080356;28;20048;-61
2021/01/19 02:20:13;;;;;;;42.83;13.18;;;-1.10;99.90;;;;;;5075262;28;20050;-62
2021/01/19 02:22:51;;;;;;;44.78;14.63;;;-1.10;99.90;;;;;;5059735;28;20059;-61
2021/01/19 02:25:33;;;;;;;41.83;13.60;;;-1.10;99.90;;;;;;5088675;28;20040;-61
2021/01/19 02:28:18;;;;;;;37.78;12.85;;;-1.10;99.90;;;;;;5071455;28;20094;-62
2021/01/19 02:31:05;;;;;;;36.67;12.80;;;-1.20;99.90;;;;;;5077075;28;20437;-62
2021/01/19 02:34:04;;;;;;;41.50;13.13;;;-1.20;99.90;;;;;;5074026;28;20402;-62
2021/01/19 02:36:37;;;;;;;40.40;13.63;;;-1.10;99.90;;;;;;5075270;28;20059;-62
2021/01/19 02:39:04;;;;;;;38.22;14.13;;;-1.20;99.90;;;;;;5097495;28;20055;-61
2021/01/19 02:41:32;;;;;;;33.30;12.50;;;-1.30;99.90;;;;;;5079397;28;20055;-62
2021/01/19 02:44:16;;;;;;;42.63;13.65;;;-1.30;99.90;;;;;;5063675;28;20052;-62
2021/01/19 02:46:42;;;;;;;36.17;12.82;;;-1.30;99.90;;;;;;5071730;28;20052;-61
2021/01/19 02:49:09;;;;;;;36.22;12.70;;;-1.40;99.90;;;;;;5078303;28;20063;-62
2021/01/19 02:51:36;;;;;;;40.17;12.93;;;-1.40;99.90;;;;;;5083568;28;20047;-62
2021/01/19 02:54:02;;;;;;;38.20;13.25;;;-1.40;99.90;;;;;;5073343;28;20055;-61
2021/01/19 02:56:45;;;;;;;37.25;13.55;;;-1.40;99.90;;;;;;5073323;28;20048;-62
2021/01/19 02:59:30;;;;;;;37.53;13.07;;;-1.40;99.90;;;;;;5073639;28;20048;-62
2021/01/19 03:02:10;;;;;;;40.63;13.57;;;-1.40;99.90;;;;;;5075525;28;20292;-62
2021/01/19 03:04:39;;;;;;;34.97;12.60;;;-1.30;99.90;;;;;;5066935;28;20075;-62
2021/01/19 03:07:08;;;;;;;39.42;12.95;;;-1.40;99.90;;;;;;5082814;28;20040;-62
2021/01/19 03:09:38;;;;;;;38.55;13.43;;;-1.30;99.90;;;;;;5081188;28;20037;-61
2021/01/19 03:12:16;;;;;;;42.78;14.25;;;-1.30;99.90;;;;;;5077555;28;20044;-62
2021/01/19 03:14:43;;;;;;;35.35;13.50;;;-1.30;99.90;;;;;;5080664;28;20052;-63
2021/01/19 03:17:12;;;;;;;43.90;12.93;;;-1.30;99.90;;;;;;5072836;28;20048;-61
2021/01/19 03:19:42;;;;;;;33.28;11.40;;;-1.30;99.90;;;;;;5076546;28;20039;-62
2021/01/19 03:22:10;;;;;;;43.28;13.35;;;-1.30;99.90;;;;;;5073882;28;20059;-62
2021/01/19 03:24:37;;;;;;;37.83;13.02;;;-1.30;99.90;;;;;;5078479;28;20430;-62
2021/01/19 03:27:05;;;;;;;33.70;12.73;;;-1.20;99.90;;;;;;5074037;28;20037;-62
2021/01/19 03:29:32;;;;;;;31.67;11.90;;;-1.20;99.90;;;;;;5074119;28;20029;-61
2021/01/19 03:31:59;;;;;;;37.40;12.85;;;-1.10;99.90;;;;;;5073936;28;20035;-61
2021/01/19 03:34:26;;;;;;;36.45;13.15;;;-1.10;99.90;;;;;;5074563;28;20601;-62
2021/01/19 03:36:52;;;;;;;38.42;14.18;;;-1.00;99.90;;;;;;5073670;28;20090;-63
2021/01/19 03:39:19;;;;;;;39.30;14.40;;;-0.90;99.90;;;;;;5073642;28;20041;-62
2021/01/19 03:41:46;;;;;;;39.65;13.25;;;-0.90;99.90;;;;;;5076096;28;20045;-62
2021/01/19 03:44:12;;;;;;;37.35;13.60;;;-0.80;99.90;;;;;;5084367;28;20043;-62
2021/01/19 03:46:39;;;;;;;40.60;12.40;;;-0.80;99.90;;;;;;5082893;28;20040;-62
2021/01/19 03:49:06;;;;;;;32.67;12.82;;;-0.70;99.90;;;;;;5085906;28;20048;-62
2021/01/19 03:51:32;;;;;;;39.38;13.52;;;-0.70;99.90;;;;;;5077157;28;20051;-62
2021/01/19 03:53:59;;;;;;;39.10;12.52;;;-0.70;99.90;;;;;;5084470;28;20055;-62
2021/01/19 03:56:25;;;;;;;41.15;13.50;;;-0.70;99.90;;;;;;5076083;28;20067;-62
2021/01/19 03:58:52;;;;;;;41.20;13.77;;;-0.70;99.90;;;;;;5072648;28;20047;-61
2021/01/19 04:01:18;;;;;;;38.50;14.05;;;-0.70;99.90;;;;;;5075953;28;20067;-64
2021/01/19 04:03:45;;;;;;;38.67;13.40;;;-0.70;99.90;;;;;;5085647;28;20044;-61
2021/01/19 04:06:11;;;;;;;37.40;13.75;;;-0.70;99.90;;;;;;5080878;28;20359;-62
2021/01/19 04:08:38;;;;;;;35.40;11.27;;;-0.70;99.90;;;;;;5072306;28;20041;-63
2021/01/19 04:11:06;;;;;;;35.13;12.18;;;-0.70;99.90;;;;;;5073416;28;20044;-62
2021/01/19 04:13:34;;;;;;;41.60;14.23;;;-0.60;99.90;;;;;;5072167;28;20067;-61
2021/01/19 04:16:02;;;;;;;36.20;11.98;;;-0.60;99.90;;;;;;5086726;28;20048;-62
2021/01/19 04:18:29;;;;;;;36.30;11.98;;;-0.60;99.90;;;;;;5068898;28;20134;-62
2021/01/19 04:20:56;;;;;;;38.35;13.52;;;-0.60;99.90;;;;;;5080226;28;20052;-61
2021/01/19 04:23:23;;;;;;;38.83;13.25;;;-0.60;99.90;;;;;;5082054;28;20052;-62
2021/01/19 04:25:50;;;;;;;37.95;12.95;;;-0.60;99.90;;;;;;5082161;28;20424;-61
2021/01/19 04:28:17;;;;;;;36.72;11.00;;;-0.70;99.90;;;;;;5078948;28;20067;-62
2021/01/19 04:30:44;;;;;;;37.75;12.25;;;-0.70;99.90;;;;;;5082105;28;20109;-61
2021/01/19 04:33:11;;;;;;;38.40;12.07;;;-0.70;99.90;;;;;;5070070;28;20113;-61
2021/01/19 04:35:42;;;;;;;36.80;12.80;;;-0.70;99.90;;;;;;5071752;28;20044;-62
2021/01/19 04:38:09;;;;;;;38.72;12.93;;;-0.70;99.90;;;;;;5074495;28;20052;-63
2021/01/19 04:40:36;;;;;;;38.95;13.57;;;-0.80;99.90;;;;;;5077105;28;20071;-61
2021/01/19 04:43:06;;;;;;;36.28;11.95;;;-0.80;99.90;;;;;;5083461;28;20038;-62
2021/01/19 04:45:33;;;;;;;36.58;13.27;;;-0.80;99.90;;;;;;5083161;28;20055;-62
2021/01/19 04:48:03;;;;;;;35.13;13.75;;;-0.80;99.90;;;;;;5082256;28;20124;-61
2021/01/19 04:50:30;;;;;;;36.58;13.43;;;-0.90;99.90;;;;;;5068476;28;20464;-63
2021/01/19 04:53:02;;;;;;;33.72;12.40;;;-0.90;99.90;;;;;;5070473;28;20076;-62
2021/01/19 04:55:31;;;;;;;38.00;13.32;;;-0.90;99.90;;;;;;5070439;28;20048;-61
2021/01/19 04:58:03;;;;;;;32.35;12.02;;;-0.90;99.90;;;;;;5075609;28;20037;-62
2021/01/19 05:00:34;;;;;;;28.05;12.15;;;-0.80;99.90;;;;;;5056325;28;20577;-61
2021/01/19 05:03:22;;;;;;;29.02;11.77;;;-0.80;99.90;;;;;;5069959;28;20059;-62
2021/01/19 05:05:59;;;;;;;33.78;12.07;;;-0.80;99.90;;;;;;5073361;28;20048;-62
2021/01/19 05:08:42;;;;;;;35.53;11.25;;;-0.80;99.90;;;;;;5085560;28;20040;-62
2021/01/19 05:11:21;;;;;;;34.47;12.75;;;-0.80;99.90;;;;;;5077480;28;20055;-62
2021/01/19 05:14:02;;;;;;;30.23;10.35;;;-0.80;99.90;;;;;;5081634;28;20052;-62
2021/01/19 05:16:36;;;;;;;34.83;11.38;;;-0.80;99.90;;;;;;5069975;28;20530;-64
2021/01/19 05:19:04;;;;;;;35.30;12.20;;;-0.80;99.90;;;;;;5083474;28;20869;-61
2021/01/19 05:21:37;;;;;;;33.63;11.82;;;-0.80;99.90;;;;;;5079221;28;20071;-62
2021/01/19 05:24:04;;;;;;;39.08;13.50;;;-0.80;99.90;;;;;;5077820;28;20059;-61
2021/01/19 05:26:33;;;;;;;33.03;11.20;;;-0.80;99.90;;;;;;5077698;28;20041;-61
2021/01/19 05:29:03;;;;;;;37.13;12.30;;;-0.80;99.90;;;;;;5069483;28;20045;-63
2021/01/19 05:31:31;;;;;;;36.92;12.77;;;-0.80;99.90;;;;;;5078575;28;20124;-63
2021/01/19 05:33:59;;;;;;;36.28;12.95;;;-0.80;99.90;;;;;;5052387;28;20079;-61
2021/01/19 05:36:37;;;;;;;34.72;12.27;;;-0.80;99.90;;;;;;5068698;28;20056;-65
2021/01/19 05:39:10;;;;;;;41.70;14.73;;;-0.80;99.90;;;;;;5071714;28;20498;-62
2021/01/19 05:41:50;;;;;;;34.97;13.00;;;-0.80;99.90;;;;;;5080925;28;20044;-62
2021/01/19 05:44:22;;;;;;;31.60;11.52;;;-0.80;99.90;;;;;;5079629;28;20115;-63
2021/01/19 05:47:04;;;;;;;36.65;13.43;;;-0.80;99.90;;;;;;5070202;28;20044;-64
2021/01/19 05:49:40;;;;;;;37.60;13.48;;;-0.80;99.90;;;;;;5074205;28;20046;-62
2021/01/19 05:52:11;;;;;;;35.40;13.30;;;-0.70;99.90;;;;;;5080660;28;20491;-60
2021/01/19 05:54:45;;;;;;;43.40;13.68;;;-0.70;99.90;;;;;;5074386;28;20037;-61
2021/01/19 05:57:26;;;;;;;42.30;13.55;;;-0.70;99.90;;;;;;5077107;28;20049;-63
2021/01/19 06:00:05;;;;;;;34.28;11.30;;;-0.70;99.90;;;;;;5070078;28;20039;-64
2021/01/19 06:02:42;;;;;;;34.25;12.27;;;-0.60;99.90;;;;;;5069376;28;20053;-64
2021/01/19 06:05:15;;;;;;;32.55;12.38;;;-0.70;99.90;;;;;;5076011;28;20037;-63
2021/01/19 06:07:47;;;;;;;38.00;13.45;;;-0.70;99.90;;;;;;5072392;28;20407;-60
2021/01/19 06:10:20;;;;;;;34.58;12.95;;;-0.60;99.90;;;;;;5084800;28;20495;-62
2021/01/19 06:12:46;;;;;;;33.47;11.50;;;-0.60;99.90;;;;;;5081878;28;20044;-60
2021/01/19 06:15:13;;;;;;;34.83;12.25;;;-0.60;99.90;;;;;;5076215;28;20059;-61
2021/01/19 06:17:39;;;;;;;33.00;12.05;;;-0.60;99.90;;;;;;5080872;28;20067;-61
2021/01/19 06:20:08;;;;;;;33.30;13.05;;;-0.60;99.90;;;;;;5082452;28;20048;-62
2021/01/19 06:22:35;;;;;;;32.80;12.57;;;-0.60;99.90;;;;;;5083406;28;20055;-61
2021/01/19 06:25:04;;;;;;;31.95;12.25;;;-0.50;99.90;;;;;;5075943;28;20044;-61
2021/01/19 06:27:33;;;;;;;36.72;12.57;;;-0.50;99.90;;;;;;5071605;28;20072;-62
2021/01/19 06:29:59;;;;;;;31.95;12.82;;;-0.50;99.90;;;;;;5074788;28;20037;-60
2021/01/19 06:32:31;;;;;;;30.88;12.38;;;-0.50;99.90;;;;;;5075433;28;20068;-61
2021/01/19 06:35:12;;;;;;;31.90;12.15;;;-0.50;99.90;;;;;;5076514;28;20686;-61
2021/01/19 06:37:40;;;;;;;33.72;12.68;;;-0.50;99.90;;;;;;5077028;28;20047;-61
2021/01/19 06:40:18;;;;;;;38.03;13.38;;;-0.50;99.90;;;;;;5074872;28;20045;-63
2021/01/19 06:43:13;;;;;;;36.78;12.98;;;-0.50;99.90;;;;;;5074006;28;20045;-60
2021/01/19 06:45:46;;;;;;;32.65;12.73;;;-0.50;99.90;;;;;;5072425;28;20056;-62
2021/01/19 06:48:16;;;;;;;26.67;10.95;;;-0.40;99.90;;;;;;5074309;28;20037;-61
2021/01/19 06:50:44;;;;;;;25.85;11.23;;;-0.40;99.90;;;;;;5079633;28;20101;-61
2021/01/19 06:53:31;;;;;;;35.17;11.82;;;-0.40;99.90;;;;;;5082208;28;20083;-60
2021/01/19 06:55:58;;;;;;;34.75;12.65;;;-0.40;99.90;;;;;;5086086;28;20051;-60
2021/01/19 06:58:54;;;;;;;34.08;12.73;;;-0.40;99.90;;;;;;5079380;28;20028;-61
2021/01/19 07:01:28;;;;;;;32.47;11.48;;;-0.30;99.90;;;;;;5072986;28;20127;-66
2021/01/19 07:04:18;;;;;;;30.88;11.75;;;-0.40;99.90;;;;;;5081303;28;20040;-61
2021/01/19 07:07:30;;;;;;;27.63;11.30;;;-0.30;99.90;;;;;;5077797;28;20098;-61
2021/01/19 07:10:03;;;;;;;29.52;9.88;;;-0.30;99.90;;;;;;5072032;28;20510;-61
2021/01/19 07:12:51;;;;;;;30.58;10.63;;;-0.20;99.90;;;;;;5088634;28;20040;-62
2021/01/19 07:15:21;;;;;;;30.02;11.90;;;-0.20;99.90;;;;;;5075703;28;20056;-62
2021/01/19 07:18:13;;;;;;;37.97;14.38;;;-0.20;99.90;;;;;;5078857;28;20051;-62
2021/01/19 07:21:00;;;;;;;39.75;13.40;;;-0.10;99.90;;;;;;5065002;28;20044;-63
2021/01/19 07:23:45;;;;;;;46.97;15.55;;;-0.10;99.90;;;;;;5076530;28;20060;-62
2021/01/19 07:26:32;;;;;;;47.88;15.82;;;0.00;99.90;;;;;;5087161;28;20052;-63
2021/01/19 07:28:58;;;;;;;47.35;16.42;;;0.10;99.90;;;;;;5078467;28;20045;-62
2021/01/19 07:31:26;;;;;;;58.15;19.60;;;0.20;99.90;;;;;;5089027;28;20039;-62
2021/01/19 07:33:58;;;;;;;40.28;15.00;;;0.30;99.90;;;;;;5080679;28;20128;-62
2021/01/19 07:36:26;;;;;;;49.38;18.35;;;0.30;99.90;;;;;;5085496;28;20048;-62
2021/01/19 07:38:53;;;;;;;75.05;31.15;;;0.40;99.90;;;;;;5084839;28;20040;-62
2021/01/19 07:41:30;;;;;;;34.65;14.02;;;0.40;99.90;;;;;;5084927;28;20044;-63
2021/01/19 07:43:57;;;;;;;36.20;15.27;;;0.50;99.90;;;;;;5085893;28;20043;-62
2021/01/19 07:46:38;;;;;;;34.70;14.40;;;0.50;99.90;;;;;;5094934;28;20177;-61
2021/01/19 07:49:06;;;;;;;38.58;16.35;;;0.40;99.90;;;;;;5072278;28;20040;-63
2021/01/19 07:51:57;;;;;;;40.80;16.45;;;0.40;99.90;;;;;;5079775;28;20039;-62
2021/01/19 07:54:23;;;;;;;32.13;13.90;;;0.50;99.90;;;;;;5078645;28;20803;-62
2021/01/19 07:56:50;;;;;;;38.47;13.82;;;0.60;99.90;;;;;;5078982;28;20067;-62
2021/01/19 07:59:19;;;;;;;32.85;12.85;;;0.50;99.90;;;;;;5079109;28;20043;-62
2021/01/19 08:01:58;;;;;;;30.00;12.00;;;0.60;99.90;;;;;;5068905;28;20048;-62
2021/01/19 08:04:36;;;;;;;27.83;11.63;;;0.60;99.90;;;;;;5075664;28;20467;-62
2021/01/19 08:07:14;;;;;;;30.80;12.13;;;0.70;99.90;;;;;;5084047;28;20040;-62
2021/01/19 08:09:41;;;;;;;32.00;13.45;;;0.80;99.90;;;;;;5063816;28;20052;-62
2021/01/19 08:12:13;;;;;;;31.08;12.93;;;0.90;99.90;;;;;;5080922;28;20707;-62
2021/01/19 08:14:45;;;;;;;35.17;12.35;;;1.00;99.90;;;;;;5065092;28;20722;-62
2021/01/19 08:17:12;;;;;;;32.03;12.50;;;1.00;99.90;;;;;;5072880;28;20086;-62
2021/01/19 08:19:44;;;;;;;31.40;13.73;;;1.20;99.90;;;;;;5070620;28;20752;-63
2021/01/19 08:22:12;;;;;;;30.70;11.95;;;1.20;99.90;;;;;;5074977;28;20051;-63
2021/01/19 08:24:41;;;;;;;29.33;11.43;;;1.20;99.90;;;;;;5067096;28;20155;-62
2021/01/19 08:27:10;;;;;;;25.75;11.02;;;1.20;99.90;;;;;;5071172;28;20040;-62
2021/01/19 08:29:38;;;;;;;29.75;12.80;;;1.30;99.90;;;;;;5068393;28;20593;-63
2021/01/19 08:32:08;;;;;;;33.88;12.32;;;1.40;99.90;;;;;;5073260;28;20035;-63
2021/01/19 08:34:38;;;;;;;29.02;11.80;;;1.40;99.90;;;;;;5076358;28;20057;-62
2021/01/19 08:37:05;;;;;;;31.88;12.73;;;1.40;99.90;;;;;;5082094;28;20051;-62
2021/01/19 08:39:32;;;;;;;27.23;11.43;;;1.40;99.90;;;;;;5084272;28;20402;-62
2021/01/19 08:42:11;;;;;;;34.63;12.55;;;1.40;99.90;;;;;;5076806;28;20573;-62
2021/01/19 08:44:37;;;;;;;35.00;14.35;;;1.50;99.90;;;;;;5082519;28;20486;-62
2021/01/19 08:47:04;;;;;;;26.55;10.98;;;1.50;99.90;;;;;;5073713;28;20102;-62
2021/01/19 08:49:37;;;;;;;26.15;10.90;;;1.40;99.90;;;;;;5072683;28;20047;-62
2021/01/19 08:52:05;;;;;;;39.65;15.10;;;1.50;99.90;;;;;;5077095;28;20495;-62
2021/01/19 08:54:32;;;;;;;32.15;13.48;;;1.60;99.90;;;;;;5083695;28;20055;-63
2021/01/19 08:56:59;;;;;;;37.40;12.77;;;1.60;99.90;;;;;;5078628;28;20068;-63
2021/01/19 08:59:50;;;;;;;31.85;12.35;;;1.70;99.90;;;;;;5078276;28;20052;-63
2021/01/19 09:02:17;;;;;;;51.33;17.70;;;1.70;99.90;;;;;;5084451;28;20049;-64
2021/01/19 09:04:45;;;;;;;30.80;13.43;;;1.80;99.90;;;;;;5080781;28;20429;-64
2021/01/19 09:07:12;;;;;;;41.65;15.75;;;1.90;99.90;;;;;;5081722;28;20525;-64
2021/01/19 09:09:46;;;;;;;29.92;11.95;;;2.00;99.90;;;;;;5076765;28;20094;-64
2021/01/19 09:12:22;;;;;;;39.10;15.05;;;2.10;99.90;;;;;;5086657;28;20059;-63
2021/01/19 09:14:50;;;;;;;82.15;28.55;;;2.10;99.90;;;;;;5069580;28;20491;-63
2021/01/19 09:17:25;;;;;;;41.35;16.10;;;2.10;99.90;;;;;;5075034;28;20415;-63
2021/01/19 09:20:06;;;;;;;30.25;12.70;;;2.00;99.90;;;;;;5079510;28;20101;-63
2021/01/19 09:22:35;;;;;;;31.93;12.53;;;2.10;99.90;;;;;;5070286;28;20103;-65
2021/01/19 09:25:03;;;;;;;26.20;10.35;;;2.10;99.90;;;;;;5076949;28;20052;-65
2021/01/19 09:27:29;;;;;;;31.92;11.23;;;2.20;99.90;;;;;;5070481;28;20043;-63
2021/01/19 09:30:10;;;;;;;26.98;10.20;;;2.30;99.90;;;;;;5071680;28;20044;-64
2021/01/19 09:32:43;;;;;;;30.23;11.00;;;2.40;99.90;;;;;;5073764;28;20081;-64
2021/01/19 09:35:12;;;;;;;23.00;10.23;;;2.40;99.90;;;;;;5077326;28;20048;-63
2021/01/19 09:37:39;;;;;;;32.00;11.55;;;2.50;99.90;;;;;;5074171;28;20311;-64
2021/01/19 09:40:07;;;;;;;27.15;11.23;;;2.60;99.90;;;;;;5072352;28;20067;-64
2021/01/19 09:42:39;;;;;;;25.73;10.50;;;2.70;99.90;;;;;;5074720;28;20102;-64
2021/01/19 09:45:10;;;;;;;23.45;10.43;;;2.70;99.90;;;;;;5056261;28;20070;-65
2021/01/19 09:47:41;;;;;;;31.90;11.30;;;2.70;99.90;;;;;;5075756;28;20047;-65
2021/01/19 09:50:10;;;;;;;30.52;11.45;;;2.80;99.90;;;;;;5060849;28;20078;-63
2021/01/19 09:52:45;;;;;;;36.42;13.02;;;2.90;99.90;;;;;;5074584;28;20051;-65
2021/01/19 09:55:14;;;;;;;26.90;11.80;;;2.90;99.90;;;;;;5072429;28;20119;-63
2021/01/19 09:57:41;;;;;;;25.40;10.35;;;2.90;99.90;;;;;;5072114;28;20071;-65
2021/01/19 10:00:10;;;;;;;32.35;11.85;;;2.90;99.90;;;;;;5076542;28;20085;-64
2021/01/19 10:02:40;;;;;;;27.88;10.38;;;3.00;99.90;;;;;;5069045;28;20079;-64
2021/01/19 10:05:07;;;;;;;26.85;10.52;;;3.00;99.90;;;;;;5078325;28;20048;-64
2021/01/19 10:07:34;;;;;;;30.05;11.55;;;3.10;99.90;;;;;;5064409;28;20046;-64
2021/01/19 10:10:12;;;;;;;29.27;12.38;;;3.20;99.90;;;;;;5078298;28;20040;-65
2021/01/19 10:12:40;;;;;;;34.42;11.05;;;3.30;99.90;;;;;;5053916;28;20052;-64
2021/01/19 10:15:08;;;;;;;29.83;11.43;;;3.40;99.90;;;;;;5071462;28;20048;-63
2021/01/19 10:17:35;;;;;;;32.67;12.80;;;3.50;99.90;;;;;;5076511;28;20044;-64
2021/01/19 10:20:13;;;;;;;30.35;12.40;;;3.40;99.90;;;;;;5077610;28;20394;-66
2021/01/19 10:22:43;;;;;;;27.55;11.88;;;3.40;99.90;;;;;;5069094;28;20057;-66
2021/01/19 10:25:26;;;;;;;33.25;10.98;;;3.40;99.90;;;;;;5055688;28;20569;-65
2021/01/19 10:28:03;;;;;;;36.10;10.73;;;3.30;99.90;;;;;;5078909;28;20119;-64
2021/01/19 10:30:30;;;;;;;26.52;10.95;;;3.20;99.90;;;;;;5082318;28;20104;-64
2021/01/19 10:32:57;;;;;;;31.75;10.77;;;3.20;99.90;;;;;;5080438;28;20052;-65
2021/01/19 10:35:35;;;;;;;29.42;11.60;;;3.20;99.90;;;;;;5086683;28;20052;-65
2021/01/19 10:38:07;;;;;;;31.80;12.30;;;3.30;99.90;;;;;;5077407;28;20044;-64
2021/01/19 10:40:35;;;;;;;28.63;11.65;;;3.30;99.90;;;;;;5081804;28;20044;-65
2021/01/19 10:43:10;;;;;;;27.20;10.38;;;3.40;99.90;;;;;;5076426;28;20036;-65
2021/01/19 10:45:40;;;;;;;28.20;11.13;;;3.40;99.90;;;;;;5079851;28;20072;-63
2021/01/19 10:48:18;;;;;;;28.83;11.30;;;3.50;99.90;;;;;;5072151;28;20037;-64
2021/01/19 10:50:47;;;;;;;31.63;11.10;;;3.60;99.90;;;;;;5079007;28;20490;-64
2021/01/19 10:53:14;;;;;;;30.75;11.82;;;3.70;99.90;;;;;;5086989;28;20062;-63
2021/01/19 10:55:40;;;;;;;29.02;11.40;;;3.80;99.90;;;;;;5081663;28;20045;-64
2021/01/19 10:58:07;;;;;;;28.58;11.13;;;3.90;99.90;;;;;;5089358;28;20072;-64
2021/01/19 11:00:34;;;;;;;30.50;11.65;;;4.00;99.90;;;;;;5075362;28;20526;-64
2021/01/19 11:03:01;;;;;;;33.45;10.73;;;4.10;99.90;;;;;;5073451;28;20575;-65
2021/01/19 11:05:28;;;;;;;27.67;10.63;;;4.00;99.90;;;;;;5081865;28;20024;-67
2021/01/19 11:07:56;;;;;;;26.83;11.40;;;4.20;99.90;;;;;;5072339;28;20150;-64
2021/01/19 11:10:25;;;;;;;25.50;11.35;;;4.20;99.90;;;;;;5075299;28;20039;-62
2021/01/19 11:12:53;;;;;;;28.92;11.05;;;4.30;99.90;;;;;;5059433;28;20051;-65
2021/01/19 11:15:19;;;;;;;26.58;10.07;;;4.30;99.40;;;;;;5071720;28;20048;-65
2021/01/19 11:17:51;;;;;;;21.90;9.40;;;4.30;99.10;;;;;;5088208;28;20414;-67
2021/01/19 11:20:19;;;;;;;24.98;10.23;;;4.30;98.50;;;;;;5090271;28;20059;-64
2021/01/19 11:22:47;;;;;;;28.00;11.45;;;4.30;98.80;;;;;;5070953;28;20045;-64
2021/01/19 11:25:15;;;;;;;33.22;12.77;;;4.30;97.90;;;;;;5081019;28;20475;-64
2021/01/19 11:27:42;;;;;;;28.40;11.40;;;4.20;98.00;;;;;;5073961;28;20044;-68
2021/01/19 11:30:09;;;;;;;28.80;12.15;;;4.20;97.50;;;;;;5072379;28;20037;-66
2021/01/19 11:32:36;;;;;;;33.78;13.25;;;4.30;97.00;;;;;;5081402;28;20086;-64
2021/01/19 11:35:03;;;;;;;29.52;12.02;;;4.20;97.40;;;;;;5071300;28;20097;-63
2021/01/19 11:37:30;;;;;;;30.20;12.13;;;4.30;97.80;;;;;;5087606;28;20506;-64
2021/01/19 11:39:56;;;;;;;31.88;13.00;;;4.20;97.10;;;;;;5071535;28;20047;-64
2021/01/19 11:42:23;;;;;;;34.58;13.65;;;4.30;96.80;;;;;;5078891;28;20056;-64
2021/01/19 11:44:50;;;;;;;40.97;16.27;;;4.20;97.30;;;;;;5081185;28;20491;-62
2021/01/19 11:47:17;;;;;;;38.28;15.23;;;4.10;97.60;;;;;;5077366;28;20501;-63
2021/01/19 11:49:48;;;;;;;35.58;13.88;;;4.20;97.10;;;;;;5077370;28;20076;-63
2021/01/19 11:52:20;;;;;;;33.08;12.68;;;4.10;96.00;;;;;;5080719;28;20043;-62
2021/01/19 11:54:48;;;;;;;29.83;10.55;;;4.10;96.10;;;;;;5078809;28;20036;-63
2021/01/19 11:57:14;;;;;;;29.48;12.18;;;4.10;95.30;;;;;;5085619;28;20059;-63
2021/01/19 11:59:41;;;;;;;28.90;11.43;;;4.10;95.10;;;;;;5079426;28;20036;-65
2021/01/19 12:02:08;;;;;;;23.25;10.27;;;4.20;95.20;;;;;;5082210;28;20043;-63
2021/01/19 12:04:37;;;;;;;23.17;10.00;;;4.20;94.20;;;;;;5076886;28;20047;-64
2021/01/19 12:07:05;;;;;;;25.27;10.88;;;4.20;94.20;;;;;;5079345;28;20044;-64
2021/01/19 12:09:32;;;;;;;21.98;9.55;;;4.30;94.10;;;;;;5076393;28;20043;-64
2021/01/19 12:11:59;;;;;;;26.60;10.63;;;4.40;92.90;;;;;;5078460;28;20051;-62
2021/01/19 12:14:25;;;;;;;24.58;9.73;;;4.40;92.90;;;;;;5072220;28;20517;-63
2021/01/19 12:16:56;;;;;;;25.67;10.00;;;4.40;92.80;;;;;;5071551;28;20053;-63
2021/01/19 12:19:24;;;;;;;23.70;10.13;;;4.50;92.20;;;;;;5075293;28;20094;-64
2021/01/19 12:21:53;;;;;;;26.27;10.52;;;4.50;92.40;;;;;;5062070;28;20165;-63
2021/01/19 12:24:22;;;;;;;28.05;9.48;;;4.60;92.20;;;;;;5059424;28;20044;-64
2021/01/19 12:26:51;;;;;;;26.98;11.10;;;4.50;92.40;;;;;;5068353;28;20403;-63
2021/01/19 12:29:18;;;;;;;28.88;11.10;;;4.50;91.00;;;;;;5068629;28;20482;-63
2021/01/19 12:31:47;;;;;;;29.00;10.82;;;4.50;91.20;;;;;;5082219;28;20379;-62
2021/01/19 12:34:14;;;;;;;29.58;10.60;;;4.50;90.80;;;;;;5076029;28;20051;-62
2021/01/19 12:36:41;;;;;;;27.60;10.18;;;4.50;91.00;;;;;;5066338;28;20040;-64
2021/01/19 12:39:07;;;;;;;26.25;9.90;;;4.50;90.80;;;;;;5077025;28;20090;-62
2021/01/19 12:41:34;;;;;;;22.95;10.20;;;4.60;90.80;;;;;;5062435;28;20404;-63
2021/01/19 12:44:02;;;;;;;22.60;9.05;;;4.70;91.20;;;;;;5078768;28;20068;-64
2021/01/19 12:46:28;;;;;;;23.73;9.77;;;4.70;89.90;;;;;;5075322;28;20040;-65
2021/01/19 12:48:56;;;;;;;22.60;8.93;;;4.70;89.70;;;;;;5081774;28;20135;-62